Time;durP1;ratioP1;P1;durP2;ratioP2;P2;SDS_P1;SDS_P2;PMS_P1;PMS_P2;Temp;Humidity;BMP_temperature;BMP_pressure;BME280_temperature;BME280_humidity;BME280_pressure;Samples;Min_cycle;Max_cycle;Signal;HPM_P1;HPM_P2
2021/03/27 00:00:07;;;;;;;2.20;1.10;;;;;;;;;;10482667;28;20221;-77
2021/03/27 00:05:12;;;;;;;2.37;1.30;;;;;;;;;;10486110;28;20248;-77
2021/03/27 00:10:18;;;;;;;3.40;1.47;;;;;;;;;;10482472;28;20210;-77
2021/03/27 00:15:23;;;;;;;4.47;1.50;;;;;;;;;;10477995;28;20365;-77
2021/03/27 00:20:28;;;;;;;3.37;1.40;;;;;;;;;;10482202;28;20203;-78
2021/03/27 00:25:34;;;;;;;1.77;1.40;;;;;;;;;;10481825;28;20254;-78
2021/03/27 00:30:40;;;;;;;2.50;1.30;;;;;;;;;;10477749;28;20297;-78
2021/03/27 00:35:43;;;;;;;3.10;1.50;;;;;;;;;;10480819;28;20229;-78
2021/03/27 00:40:47;;;;;;;1.67;1.37;;;;;;;;;;10479944;28;20218;-78
2021/03/27 00:45:52;;;;;;;4.63;1.57;;;;;;;;;;10475681;28;20237;-78
2021/03/27 00:50:55;;;;;;;1.53;1.30;;;;;;;;;;10483377;28;20725;-78
2021/03/27 00:55:59;;;;;;;3.73;1.50;;;;;;;;;;10482700;28;20363;-78
2021/03/27 01:01:04;;;;;;;3.27;1.50;;;;;;;;;;10477973;28;20220;-77
2021/03/27 01:06:08;;;;;;;3.80;1.80;;;;;;;;;;10481636;28;20317;-77
2021/03/27 01:11:12;;;;;;;4.80;1.80;;;;;;;;;;10481998;28;20643;-77
2021/03/27 01:16:17;;;;;;;2.97;1.67;;;;;;;;;;10477388;28;20241;-77
2021/03/27 01:21:24;;;;;;;4.13;1.30;;;;;;;;;;10477653;28;20206;-76
2021/03/27 01:26:30;;;;;;;3.23;1.40;;;;;;;;;;10477590;28;20345;-77
2021/03/27 01:31:37;;;;;;;5.83;1.30;;;;;;;;;;10481712;28;20243;-78
2021/03/27 01:36:41;;;;;;;1.57;1.13;;;;;;;;;;10478093;28;20219;-78
2021/03/27 01:42:02;;;;;;;1.60;1.00;;;;;;;;;;10478213;28;20210;-78
2021/03/27 01:47:06;;;;;;;2.73;1.10;;;;;;;;;;10489249;28;20371;-79
2021/03/27 01:52:15;;;;;;;3.30;1.37;;;;;;;;;;10487347;28;20221;-78
2021/03/27 01:57:21;;;;;;;2.90;1.43;;;;;;;;;;10487674;28;20211;-78
2021/03/27 02:02:30;;;;;;;5.23;1.53;;;;;;;;;;10476848;28;20643;-77
2021/03/27 02:07:38;;;;;;;9.13;2.00;;;;;;;;;;10487899;28;20396;-77
2021/03/27 02:12:48;;;;;;;3.80;2.13;;;;;;;;;;10485338;28;20230;-77
2021/03/27 02:17:52;;;;;;;8.10;2.60;;;;;;;;;;10481534;28;20693;-77
2021/03/27 02:22:59;;;;;;;7.67;2.30;;;;;;;;;;10486073;28;20660;-77
2021/03/27 02:28:09;;;;;;;6.03;2.53;;;;;;;;;;10487998;28;20466;-78
2021/03/27 02:33:18;;;;;;;6.47;2.80;;;;;;;;;;10487184;28;20293;-77
2021/03/27 02:38:26;;;;;;;6.60;2.67;;;;;;;;;;10483084;28;20424;-77
2021/03/27 02:43:34;;;;;;;5.50;2.60;;;;;;;;;;10483388;28;21111;-77
2021/03/27 02:48:45;;;;;;;7.87;2.90;;;;;;;;;;10485103;28;20609;-77
2021/03/27 02:53:55;;;;;;;4.73;2.80;;;;;;;;;;10486560;28;20222;-77
2021/03/27 02:59:09;;;;;;;9.33;3.03;;;;;;;;;;10482962;28;20301;-77
2021/03/27 03:04:15;;;;;;;7.63;2.90;;;;;;;;;;10485756;28;20238;-77
2021/03/27 03:09:20;;;;;;;8.03;2.80;;;;;;;;;;10485895;28;20657;-78
2021/03/27 03:14:24;;;;;;;8.90;2.90;;;;;;;;;;10484030;28;20234;-77
2021/03/27 03:19:29;;;;;;;10.17;2.90;;;;;;;;;;10490708;28;20222;-77
2021/03/27 03:24:33;;;;;;;9.37;3.20;;;;;;;;;;10482258;28;20325;-79
2021/03/27 03:29:41;;;;;;;8.97;3.00;;;;;;;;;;10480060;28;20214;-79
2021/03/27 03:34:56;;;;;;;9.17;2.83;;;;;;;;;;10491209;28;20221;-79
2021/03/27 03:40:08;;;;;;;11.67;2.97;;;;;;;;;;10478420;28;20711;-78
2021/03/27 03:45:12;;;;;;;9.70;2.67;;;;;;;;;;10483237;28;20237;-78
2021/03/27 03:50:20;;;;;;;8.30;2.67;;;;;;;;;;10484681;28;20582;-79
2021/03/27 03:55:26;;;;;;;9.33;3.10;;;;;;;;;;10479082;28;20298;-79
2021/03/27 04:00:33;;;;;;;10.90;2.53;;;;;;;;;;10473766;28;20225;-78
2021/03/27 04:05:40;;;;;;;10.83;2.47;;;;;;;;;;10478460;28;20231;-79
2021/03/27 04:10:42;;;;;;;8.80;2.63;;;;;;;;;;10476964;28;20348;-77
2021/03/27 04:15:47;;;;;;;10.20;2.50;;;;;;;;;;10481118;28;20230;-77
2021/03/27 04:20:52;;;;;;;9.80;2.60;;;;;;;;;;10482096;28;20273;-77
2021/03/27 04:26:04;;;;;;;5.63;2.30;;;;;;;;;;10483849;28;20226;-79
2021/03/27 04:31:09;;;;;;;15.67;2.87;;;;;;;;;;10482523;28;20675;-76
2021/03/27 04:36:16;;;;;;;7.90;2.50;;;;;;;;;;10478690;28;20225;-79
2021/03/27 04:41:26;;;;;;;12.00;2.73;;;;;;;;;;10484542;28;20766;-79
2021/03/27 04:46:30;;;;;;;7.40;2.50;;;;;;;;;;10475566;28;20237;-79
2021/03/27 04:51:40;;;;;;;10.17;2.70;;;;;;;;;;10483166;28;20297;-79
2021/03/27 04:56:46;;;;;;;8.83;2.40;;;;;;;;;;10477704;28;20673;-79
2021/03/27 05:01:52;;;;;;;11.20;3.10;;;;;;;;;;10478947;28;20515;-78
2021/03/27 05:06:59;;;;;;;14.53;3.10;;;;;;;;;;10485834;28;20244;-78
2021/03/27 05:12:05;;;;;;;10.13;2.30;;;;;;;;;;10486241;28;20217;-79
2021/03/27 05:17:11;;;;;;;11.03;2.57;;;;;;;;;;10482837;28;20230;-79
2021/03/27 05:22:24;;;;;;;12.03;2.77;;;;;;;;;;10482097;28;20214;-79
2021/03/27 05:27:34;;;;;;;11.60;2.77;;;;;;;;;;10483920;28;20238;-78
2021/03/27 05:32:48;;;;;;;12.33;2.80;;;;;;;;;;10472809;28;20207;-79
2021/03/27 05:37:58;;;;;;;14.70;2.83;;;;;;;;;;10480546;28;20228;-79
2021/03/27 05:43:15;;;;;;;15.93;2.80;;;;;;;;;;10472986;28;20312;-78
2021/03/27 05:48:31;;;;;;;13.63;2.90;;;;;;;;;;10478958;28;20242;-78
2021/03/27 05:53:50;;;;;;;9.40;2.70;;;;;;;;;;10484419;28;20944;-78
2021/03/27 05:59:00;;;;;;;13.13;2.57;;;;;;;;;;10486027;28;20244;-78
2021/03/27 06:04:16;;;;;;;7.73;1.93;;;;;;;;;;10492952;28;20314;-78
2021/03/27 06:09:39;;;;;;;8.80;2.50;;;;;;;;;;10481112;28;20224;-79
2021/03/27 06:14:48;;;;;;;7.87;2.00;;;;;;;;;;10466067;28;20226;-81
2021/03/27 06:19:59;;;;;;;10.43;2.57;;;;;;;;;;10476636;28;20689;-79
2021/03/27 06:25:09;;;;;;;10.73;2.30;;;;;;;;;;10477932;28;20246;-79
2021/03/27 06:30:32;;;;;;;8.03;2.20;;;;;;;;;;10490129;28;20229;-79
2021/03/27 06:35:41;;;;;;;7.67;2.30;;;;;;;;;;10497522;28;20213;-79
2021/03/27 06:40:55;;;;;;;6.67;2.27;;;;;;;;;;10489777;28;20206;-79
2021/03/27 06:46:04;;;;;;;8.87;2.73;;;;;;;;;;10486936;28;20320;-79
2021/03/27 06:51:21;;;;;;;10.60;2.40;;;;;;;;;;10491160;28;20214;-79
2021/03/27 06:56:33;;;;;;;6.27;2.23;;;;;;;;;;10491512;28;20828;-79
2021/03/27 07:01:43;;;;;;;11.70;2.47;;;;;;;;;;10496653;28;20347;-79
2021/03/27 07:07:04;;;;;;;8.50;2.53;;;;;;;;;;10497653;28;20249;-79
2021/03/27 07:12:22;;;;;;;10.47;2.83;;;;;;;;;;10493958;28;21399;-78
2021/03/27 07:17:34;;;;;;;12.90;2.80;;;;;;;;;;10474483;28;20212;-78
2021/03/27 07:22:43;;;;;;;11.30;3.10;;;;;;;;;;10496438;28;20206;-79
2021/03/27 07:27:49;;;;;;;10.57;2.90;;;;;;;;;;10486955;28;20845;-80
2021/03/27 07:33:06;;;;;;;15.73;3.10;;;;;;;;;;10492465;28;20404;-80
2021/03/27 07:38:23;;;;;;;14.57;3.10;;;;;;;;;;10489823;28;20214;-79
2021/03/27 07:43:47;;;;;;;12.53;3.00;;;;;;;;;;10494030;28;20225;-79
2021/03/27 07:48:55;;;;;;;14.10;3.37;;;;;;;;;;10494077;28;20617;-79
2021/03/27 07:54:09;;;;;;;10.43;2.53;;;;;;;;;;10485397;28;20214;-78
2021/03/27 07:59:21;;;;;;;18.07;3.50;;;;;;;;;;10484043;28;20296;-81
2021/03/27 08:04:40;;;;;;;14.00;3.10;;;;;;;;;;10484156;28;20217;-79
2021/03/27 08:10:13;;;;;;;9.50;2.93;;;;;;;;;;10485313;28;20214;-79
2021/03/27 08:15:27;;;;;;;13.77;3.10;;;;;;;;;;10477870;28;20268;-78
2021/03/27 08:20:40;;;;;;;8.13;2.53;;;;;;;;;;10488995;28;20209;-79
2021/03/27 08:26:06;;;;;;;9.77;3.00;;;;;;;;;;10490223;28;20238;-79
2021/03/27 08:31:24;;;;;;;10.00;3.03;;;;;;;;;;10487762;28;20284;-78
2021/03/27 08:36:46;;;;;;;10.93;3.07;;;;;;;;;;10487119;28;20282;-78
2021/03/27 08:41:53;;;;;;;8.90;2.50;;;;;;;;;;10489725;28;20316;-79
2021/03/27 08:47:03;;;;;;;14.33;2.93;;;;;;;;;;10484309;28;20226;-79
2021/03/27 08:52:13;;;;;;;11.03;2.40;;;;;;;;;;10487270;28;20210;-79
2021/03/27 08:57:30;;;;;;;12.47;2.77;;;;;;;;;;10481707;28;20695;-79
2021/03/27 09:02:39;;;;;;;9.50;2.40;;;;;;;;;;10488803;28;20627;-79
2021/03/27 09:07:49;;;;;;;11.97;3.30;;;;;;;;;;10483275;28;21044;-78
2021/03/27 09:12:59;;;;;;;11.10;2.50;;;;;;;;;;10482345;28;20252;-79
2021/03/27 09:18:13;;;;;;;10.07;2.67;;;;;;;;;;10483227;28;20304;-79
2021/03/27 09:23:38;;;;;;;7.93;2.60;;;;;;;;;;10488999;28;20579;-79
2021/03/27 09:28:49;;;;;;;10.30;2.93;;;;;;;;;;10482083;28;20235;-79
2021/03/27 09:33:54;;;;;;;8.23;2.60;;;;;;;;;;10494123;28;20210;-79
2021/03/27 09:39:02;;;;;;;8.47;2.33;;;;;;;;;;10486743;28;20220;-78
2021/03/27 09:44:12;;;;;;;12.33;2.27;;;;;;;;;;10482548;28;20477;-80
2021/03/27 09:49:22;;;;;;;9.47;2.37;;;;;;;;;;10487741;28;20240;-81
2021/03/27 09:54:27;;;;;;;11.43;2.57;;;;;;;;;;10482727;28;20221;-80
2021/03/27 09:59:33;;;;;;;7.07;2.07;;;;;;;;;;10492315;28;21128;-79
2021/03/27 10:04:45;;;;;;;8.73;2.43;;;;;;;;;;10495340;28;20236;-80
2021/03/27 10:10:04;;;;;;;8.00;2.40;;;;;;;;;;10499575;28;20217;-80
2021/03/27 10:15:14;;;;;;;9.00;2.30;;;;;;;;;;10475497;28;20234;-80
2021/03/27 10:25:40;;;;;;;11.63;2.77;;;;;;;;;;10496902;28;20256;-80
2021/03/27 10:30:49;;;;;;;10.97;2.50;;;;;;;;;;10494008;28;20675;-79
2021/03/27 10:35:55;;;;;;;7.77;2.40;;;;;;;;;;10493861;28;20208;-79
2021/03/27 10:40:59;;;;;;;13.13;2.57;;;;;;;;;;10488953;28;20210;-78
2021/03/27 10:46:14;;;;;;;10.40;2.57;;;;;;;;;;10483792;28;20717;-79
2021/03/27 10:51:25;;;;;;;7.97;2.60;;;;;;;;;;10490190;28;20205;-80
2021/03/27 10:56:36;;;;;;;11.00;2.67;;;;;;;;;;10489145;28;20210;-81
2021/03/27 11:01:56;;;;;;;11.10;3.07;;;;;;;;;;10490511;28;20203;-80
2021/03/27 11:07:21;;;;;;;7.03;2.43;;;;;;;;;;10491566;28;20272;-81
2021/03/27 11:12:36;;;;;;;12.03;2.83;;;;;;;;;;10495171;28;20218;-80
2021/03/27 11:17:52;;;;;;;9.80;2.80;;;;;;;;;;10484177;28;20675;-80
2021/03/27 11:23:22;;;;;;;9.47;2.80;;;;;;;;;;10491005;28;20283;-80
2021/03/27 11:28:26;;;;;;;10.20;2.83;;;;;;;;;;10488659;28;20257;-80
2021/03/27 11:33:30;;;;;;;10.60;2.57;;;;;;;;;;10487832;28;20210;-80
2021/03/27 11:38:38;;;;;;;12.27;2.40;;;;;;;;;;10493028;28;20217;-80
2021/03/27 11:44:09;;;;;;;9.97;2.87;;;;;;;;;;10480035;28;20217;-80
2021/03/27 11:49:26;;;;;;;18.17;3.30;;;;;;;;;;10416426;28;20332;-81
2021/03/27 11:54:34;;;;;;;9.83;2.50;;;;;;;;;;10490744;28;20222;-80
2021/03/27 12:00:47;;;;;;;11.30;3.10;;;;;;;;;;10490611;28;20218;-81
2021/03/27 12:05:12;;;;;;;9.67;2.53;;;;;;;;;;10487680;28;20207;-80
2021/03/27 12:10:34;;;;;;;8.97;2.60;;;;;;;;;;10481815;28;20210;-81
2021/03/27 12:15:38;;;;;;;11.83;3.27;;;;;;;;;;10485130;28;20280;-80
2021/03/27 12:20:52;;;;;;;7.97;2.57;;;;;;;;;;10483925;28;21067;-81
2021/03/27 12:26:08;;;;;;;10.67;2.80;;;;;;;;;;10487838;28;20439;-81
2021/03/27 12:31:27;;;;;;;13.17;2.90;;;;;;;;;;10490404;28;20213;-81
2021/03/27 12:36:36;;;;;;;10.90;2.70;;;;;;;;;;10494303;28;20211;-81
2021/03/27 12:41:40;;;;;;;13.17;2.83;;;;;;;;;;10485847;28;20206;-81
2021/03/27 12:46:46;;;;;;;13.20;2.63;;;;;;;;;;10491997;28;20222;-81
2021/03/27 12:51:53;;;;;;;11.63;2.70;;;;;;;;;;10485598;28;20586;-81
2021/03/27 12:57:16;;;;;;;10.70;2.87;;;;;;;;;;10488135;28;20214;-81
2021/03/27 13:02:21;;;;;;;12.77;2.97;;;;;;;;;;10489461;28;20619;-81
2021/03/27 13:07:27;;;;;;;10.80;3.10;;;;;;;;;;10486920;28;20244;-81
2021/03/27 13:12:33;;;;;;;9.27;2.90;;;;;;;;;;10489317;28;20825;-81
2021/03/27 13:17:37;;;;;;;13.37;3.10;;;;;;;;;;10485119;28;20409;-80
2021/03/27 13:22:42;;;;;;;14.97;3.50;;;;;;;;;;10486128;28;20213;-80
2021/03/27 13:27:47;;;;;;;12.13;2.60;;;;;;;;;;10490897;28;20241;-80
2021/03/27 13:32:56;;;;;;;7.63;2.53;;;;;;;;;;10484364;28;20663;-80
2021/03/27 13:38:04;;;;;;;11.00;2.57;;;;;;;;;;10489930;28;20305;-79
2021/03/27 13:43:10;;;;;;;13.33;2.80;;;;;;;;;;10492153;28;20215;-80
2021/03/27 13:48:20;;;;;;;8.87;3.20;;;;;;;;;;10497396;28;20238;-80
2021/03/27 13:53:41;;;;;;;11.37;3.40;;;;;;;;;;10488211;28;20570;-80
2021/03/27 13:59:01;;;;;;;10.93;2.53;;;;;;;;;;10489461;28;20283;-80
2021/03/27 14:04:09;;;;;;;12.27;2.80;;;;;;;;;;10487999;28;20222;-80
2021/03/27 14:09:34;;;;;;;10.87;2.83;;;;;;;;;;10490866;28;20721;-80
2021/03/27 14:14:39;;;;;;;6.57;2.50;;;;;;;;;;10473466;28;20291;-80
2021/03/27 14:20:04;;;;;;;12.40;2.47;;;;;;;;;;10497870;28;20734;-80
2021/03/27 14:25:17;;;;;;;12.53;3.00;;;;;;;;;;10493225;28;20218;-79
2021/03/27 14:30:52;;;;;;;9.47;2.70;;;;;;;;;;10493316;28;20209;-79
2021/03/27 14:36:02;;;;;;;12.83;2.80;;;;;;;;;;10490904;28;20205;-79
2021/03/27 14:41:06;;;;;;;13.17;3.00;;;;;;;;;;10497880;28;20664;-79
2021/03/27 14:46:13;;;;;;;9.53;2.80;;;;;;;;;;10492597;28;20230;-79
2021/03/27 14:51:23;;;;;;;9.73;2.70;;;;;;;;;;10485443;28;20225;-79
2021/03/27 14:56:29;;;;;;;11.07;2.80;;;;;;;;;;10489751;28;20230;-81
2021/03/27 15:01:34;;;;;;;13.67;3.00;;;;;;;;;;10491679;28;20256;-79
2021/03/27 15:06:45;;;;;;;15.03;2.97;;;;;;;;;;10490886;28;20258;-80
2021/03/27 15:11:57;;;;;;;11.10;2.70;;;;;;;;;;10488189;28;20217;-79
2021/03/27 15:17:07;;;;;;;10.40;2.70;;;;;;;;;;10491049;28;20274;-79
2021/03/27 15:22:17;;;;;;;8.03;2.70;;;;;;;;;;10494962;28;20222;-79
2021/03/27 15:27:25;;;;;;;11.87;3.10;;;;;;;;;;10491000;28;20222;-80
2021/03/27 15:32:31;;;;;;;11.40;2.67;;;;;;;;;;10490416;28;20305;-79
2021/03/27 15:37:37;;;;;;;13.00;2.97;;;;;;;;;;10488200;28;20299;-79
2021/03/27 15:42:46;;;;;;;10.67;2.80;;;;;;;;;;10492974;28;20236;-79
2021/03/27 15:47:49;;;;;;;14.93;3.10;;;;;;;;;;10484504;28;20609;-79
2021/03/27 15:53:00;;;;;;;10.20;2.97;;;;;;;;;;10495254;28;20213;-79
2021/03/27 15:58:16;;;;;;;9.57;2.80;;;;;;;;;;10488119;28;20551;-79
2021/03/27 16:03:28;;;;;;;8.83;2.67;;;;;;;;;;10482187;28;20217;-79
2021/03/27 16:08:38;;;;;;;7.57;2.60;;;;;;;;;;10486780;28;20226;-79
2021/03/27 16:13:45;;;;;;;7.70;2.30;;;;;;;;;;10487287;28;20227;-79
2021/03/27 16:19:00;;;;;;;14.40;2.90;;;;;;;;;;10487649;28;20579;-80
2021/03/27 16:24:11;;;;;;;9.87;2.67;;;;;;;;;;10487528;28;20587;-80
2021/03/27 16:29:17;;;;;;;10.97;2.50;;;;;;;;;;10487217;28;20588;-79
2021/03/27 16:34:53;;;;;;;7.37;2.33;;;;;;;;;;10491759;28;20272;-80
2021/03/27 16:40:01;;;;;;;10.53;2.87;;;;;;;;;;10477627;28;20214;-80
2021/03/27 16:45:16;;;;;;;15.30;2.80;;;;;;;;;;10479227;28;20311;-79
2021/03/27 16:50:37;;;;;;;8.13;2.47;;;;;;;;;;10485863;28;20710;-79
2021/03/27 16:55:47;;;;;;;11.60;2.90;;;;;;;;;;10486862;28;20618;-80
2021/03/27 17:00:54;;;;;;;11.20;2.90;;;;;;;;;;10485509;28;20421;-80
2021/03/27 17:06:01;;;;;;;13.50;3.00;;;;;;;;;;10490436;28;20243;-80
2021/03/27 17:11:14;;;;;;;11.97;3.27;;;;;;;;;;10485919;28;20214;-80
2021/03/27 17:16:22;;;;;;;9.73;3.20;;;;;;;;;;10484791;28;20238;-80
2021/03/27 17:21:28;;;;;;;10.87;2.97;;;;;;;;;;10482970;28;20331;-80
2021/03/27 17:26:47;;;;;;;12.30;3.40;;;;;;;;;;10483144;28;20572;-81
2021/03/27 17:31:55;;;;;;;12.13;3.30;;;;;;;;;;10488925;28;20314;-84
2021/03/27 17:37:05;;;;;;;13.17;3.57;;;;;;;;;;10490813;28;20206;-79
2021/03/27 17:42:10;;;;;;;13.23;3.50;;;;;;;;;;10474052;28;20291;-81
2021/03/27 17:47:19;;;;;;;14.70;3.50;;;;;;;;;;10476626;28;20710;-78
2021/03/27 17:52:29;;;;;;;15.87;3.53;;;;;;;;;;10480980;28;20209;-79
2021/03/27 17:57:37;;;;;;;14.70;3.47;;;;;;;;;;10478052;28;20595;-80
2021/03/27 18:02:40;;;;;;;17.27;3.90;;;;;;;;;;10470477;28;20296;-78
2021/03/27 18:07:43;;;;;;;11.73;3.00;;;;;;;;;;10477160;28;20482;-78
2021/03/27 18:12:50;;;;;;;13.40;3.60;;;;;;;;;;10478600;28;20234;-78
2021/03/27 18:18:01;;;;;;;13.43;3.57;;;;;;;;;;10474770;28;20207;-79
2021/03/27 18:23:12;;;;;;;16.03;3.60;;;;;;;;;;10475386;28;20775;-77
2021/03/27 18:28:19;;;;;;;13.17;3.93;;;;;;;;;;10476191;28;20956;-77
2021/03/27 18:33:44;;;;;;;12.93;3.57;;;;;;;;;;10489005;28;20299;-77
2021/03/27 18:38:52;;;;;;;13.50;3.90;;;;;;;;;;10472929;28;20214;-77
2021/03/27 18:44:01;;;;;;;16.13;4.07;;;;;;;;;;10485214;28;20214;-76
2021/03/27 18:49:05;;;;;;;17.67;4.57;;;;;;;;;;10476306;28;20522;-76
2021/03/27 18:54:08;;;;;;;11.17;3.70;;;;;;;;;;10475911;28;20234;-76
2021/03/27 18:59:17;;;;;;;13.17;4.07;;;;;;;;;;10472410;28;20214;-77
2021/03/27 19:04:26;;;;;;;12.93;3.70;;;;;;;;;;10476602;28;21421;-77
2021/03/27 19:09:40;;;;;;;19.10;3.90;;;;;;;;;;10474460;28;20614;-77
2021/03/27 19:14:46;;;;;;;16.57;4.43;;;;;;;;;;10474644;28;20230;-77
2021/03/27 19:19:54;;;;;;;15.27;3.90;;;;;;;;;;10470873;28;20301;-77
2021/03/27 19:24:58;;;;;;;19.87;4.20;;;;;;;;;;10477352;28;20206;-77
2021/03/27 19:30:05;;;;;;;16.70;4.47;;;;;;;;;;10468840;28;20233;-77
2021/03/27 19:35:16;;;;;;;10.80;4.00;;;;;;;;;;10478839;28;20532;-77
2021/03/27 19:40:21;;;;;;;14.27;4.40;;;;;;;;;;10473825;28;20210;-76
2021/03/27 19:45:31;;;;;;;15.37;4.07;;;;;;;;;;10468823;28;20201;-79
2021/03/27 19:50:36;;;;;;;17.80;4.77;;;;;;;;;;10478871;28;20579;-77
2021/03/27 19:55:40;;;;;;;13.37;4.23;;;;;;;;;;10464142;28;20665;-76
2021/03/27 20:00:47;;;;;;;15.80;4.27;;;;;;;;;;10473663;28;20238;-77
2021/03/27 20:05:56;;;;;;;14.47;4.00;;;;;;;;;;10473465;28;20358;-76
2021/03/27 20:11:05;;;;;;;18.33;4.40;;;;;;;;;;10478270;28;20211;-78
2021/03/27 20:16:14;;;;;;;18.67;4.30;;;;;;;;;;10471691;28;20245;-77
2021/03/27 20:21:22;;;;;;;17.97;4.27;;;;;;;;;;10465431;28;20210;-77
2021/03/27 20:26:30;;;;;;;17.83;4.03;;;;;;;;;;10470926;28;20230;-77
2021/03/27 20:31:37;;;;;;;15.50;3.83;;;;;;;;;;10466996;28;20225;-78
2021/03/27 20:36:42;;;;;;;14.93;4.23;;;;;;;;;;10478136;28;20199;-77
2021/03/27 20:42:05;;;;;;;18.33;3.87;;;;;;;;;;10467982;28;20209;-77
2021/03/27 20:47:25;;;;;;;18.53;4.60;;;;;;;;;;10468326;28;20237;-77
2021/03/27 20:52:44;;;;;;;18.27;4.50;;;;;;;;;;10467287;28;20245;-77
2021/03/27 20:57:55;;;;;;;18.60;4.50;;;;;;;;;;10468963;28;20206;-77
2021/03/27 21:03:03;;;;;;;18.07;5.07;;;;;;;;;;10468644;28;20683;-78
2021/03/27 21:08:09;;;;;;;26.60;5.33;;;;;;;;;;10468148;28;20730;-78
2021/03/27 21:13:20;;;;;;;18.47;5.40;;;;;;;;;;10467809;28;20366;-77
2021/03/27 21:18:24;;;;;;;21.00;4.93;;;;;;;;;;10476515;28;20221;-76
2021/03/27 21:23:45;;;;;;;24.20;6.20;;;;;;;;;;10468560;28;20210;-77
2021/03/27 21:29:28;;;;;;;25.00;5.80;;;;;;;;;;10463653;28;20611;-77
2021/03/27 21:34:35;;;;;;;22.70;5.43;;;;;;;;;;10468282;28;20210;-77
2021/03/27 21:39:48;;;;;;;23.67;5.73;;;;;;;;;;10468651;28;20210;-77
2021/03/27 21:45:02;;;;;;;20.17;5.30;;;;;;;;;;10471963;28;20578;-77
2021/03/27 21:50:05;;;;;;;17.00;4.63;;;;;;;;;;10467605;28;20226;-77
2021/03/27 21:55:13;;;;;;;17.13;4.90;;;;;;;;;;10465767;28;20732;-77
2021/03/27 22:00:17;;;;;;;25.07;5.00;;;;;;;;;;10466223;28;20202;-77
2021/03/27 22:05:23;;;;;;;23.50;5.00;;;;;;;;;;10481082;28;20218;-78
2021/03/27 22:10:32;;;;;;;21.93;4.80;;;;;;;;;;10483729;28;20230;-78
2021/03/27 22:15:47;;;;;;;18.50;4.33;;;;;;;;;;10471312;28;20231;-79
2021/03/27 22:20:50;;;;;;;18.63;4.97;;;;;;;;;;10480599;28;20210;-79
2021/03/27 22:25:55;;;;;;;15.63;4.27;;;;;;;;;;10477506;28;20214;-78
2021/03/27 22:31:02;;;;;;;18.87;4.73;;;;;;;;;;10474737;28;20234;-78
2021/03/27 22:36:24;;;;;;;18.53;4.23;;;;;;;;;;10483916;28;20214;-78
2021/03/27 22:41:30;;;;;;;17.80;4.33;;;;;;;;;;10479219;28;20256;-78
2021/03/27 22:46:35;;;;;;;12.13;3.70;;;;;;;;;;10481723;28;20230;-77
2021/03/27 22:51:40;;;;;;;13.60;3.67;;;;;;;;;;10497151;28;20210;-78
2021/03/27 22:56:44;;;;;;;17.90;3.87;;;;;;;;;;10484868;28;20381;-77
2021/03/27 23:01:49;;;;;;;16.20;4.20;;;;;;;;;;10481723;28;20238;-77
2021/03/27 23:06:55;;;;;;;18.63;4.17;;;;;;;;;;10489039;28;20236;-77
2021/03/27 23:11:59;;;;;;;14.83;4.27;;;;;;;;;;10488204;28;20214;-78
2021/03/27 23:17:02;;;;;;;14.60;3.80;;;;;;;;;;10486926;28;20226;-79
2021/03/27 23:22:09;;;;;;;17.90;4.13;;;;;;;;;;10494008;28;20205;-78
2021/03/27 23:27:16;;;;;;;12.03;3.60;;;;;;;;;;10486000;28;20606;-78
2021/03/27 23:32:20;;;;;;;16.87;3.83;;;;;;;;;;10488525;28;20211;-78
2021/03/27 23:37:43;;;;;;;13.70;3.40;;;;;;;;;;10491089;28;20214;-77
2021/03/27 23:42:56;;;;;;;15.73;4.07;;;;;;;;;;10486199;28;20207;-77
2021/03/27 23:48:09;;;;;;;13.17;4.00;;;;;;;;;;10487865;28;20226;-78
2021/03/27 23:53:12;;;;;;;13.17;2.80;;;;;;;;;;10488458;28;20214;-78
2021/03/27 23:58:17;;;;;;;14.07;3.27;;;;;;;;;;10487029;28;20225;-79
